Winfield, Illinois
Current Conditions -  °F | °C
As of 9:52 AM on Tuesday 21 Oct 2014 (Local Time) from KDPA Reporting Station
Overcast Overcast  
Wind Chill: 50°   Ceiling: 4200
Heat Index: 50°   Visibility: 10mi
Dew Point: 40°   Wind: 10mph
Humidity: 68%   Direction: 360°N
Pressure: 30.16"   Gusts: NA
Location:  41.87°N, 88.16°W
Report Text: KDPA 211452Z 36009KT 10SM FEW021 OVC042 10/04 A3016 RMK AO2 SLP214 T01000044 51020
Loading
Personal Weather Stations






























Interactive Weather Map
Tropical Storm Tracking
New forecast layout! Learn more

10-Day Weather Forecast

Advertisements
Track Severe Weather on mobile